sensor_id;sensor_type;location;lat;lon;timestamp;pressure;altitude;pressure_sealevel;temperature;humidity
19286;BME280;9776;50.798;6.430;2022-09-09T00:02:13;99505.72;;;18.86;61.47
19286;BME280;9776;50.798;6.430;2022-09-09T00:04:48;99508.75;;;18.90;61.24
19286;BME280;9776;50.798;6.430;2022-09-09T00:07:23;99497.09;;;18.84;61.38
19286;BME280;9776;50.798;6.430;2022-09-09T00:09:58;99490.50;;;18.87;61.23
19286;BME280;9776;50.798;6.430;2022-09-09T00:12:34;99484.31;;;18.86;60.64
19286;BME280;9776;50.798;6.430;2022-09-09T00:15:06;99477.56;;;18.84;60.73
19286;BME280;9776;50.798;6.430;2022-09-09T00:17:36;99486.41;;;18.84;60.33
19286;BME280;9776;50.798;6.430;2022-09-09T00:20:12;99495.81;;;18.68;60.46
19286;BME280;9776;50.798;6.430;2022-09-09T00:22:43;99489.06;;;18.66;60.34
19286;BME280;9776;50.798;6.430;2022-09-09T00:25:16;99493.59;;;18.65;60.05
19286;BME280;9776;50.798;6.430;2022-09-09T00:27:48;99490.78;;;18.60;60.00
19286;BME280;9776;50.798;6.430;2022-09-09T00:30:17;99487.03;;;18.61;59.85
19286;BME280;9776;50.798;6.430;2022-09-09T00:32:49;99487.50;;;18.58;60.07
19286;BME280;9776;50.798;6.430;2022-09-09T00:35:22;99488.16;;;18.54;59.92
19286;BME280;9776;50.798;6.430;2022-09-09T00:37:51;99482.22;;;18.52;60.10
19286;BME280;9776;50.798;6.430;2022-09-09T00:40:24;99479.75;;;18.50;60.03
19286;BME280;9776;50.798;6.430;2022-09-09T00:43:04;99478.75;;;18.45;60.42
19286;BME280;9776;50.798;6.430;2022-09-09T00:46:10;99476.75;;;18.40;60.37
19286;BME280;9776;50.798;6.430;2022-09-09T00:48:50;99464.66;;;18.38;60.22
19286;BME280;9776;50.798;6.430;2022-09-09T00:51:25;99474.53;;;18.37;60.35
19286;BME280;9776;50.798;6.430;2022-09-09T00:54:13;99474.59;;;18.31;60.42
19286;BME280;9776;50.798;6.430;2022-09-09T00:56:46;99482.41;;;18.32;60.25
19286;BME280;9776;50.798;6.430;2022-09-09T00:59:25;99480.38;;;18.28;60.42
19286;BME280;9776;50.798;6.430;2022-09-09T01:01:54;99482.88;;;18.23;60.56
19286;BME280;9776;50.798;6.430;2022-09-09T01:04:26;99485.56;;;18.23;60.57
19286;BME280;9776;50.798;6.430;2022-09-09T01:07:02;99477.97;;;18.20;60.90
19286;BME280;9776;50.798;6.430;2022-09-09T01:09:39;99480.06;;;18.18;60.95
19286;BME280;9776;50.798;6.430;2022-09-09T01:12:12;99475.97;;;18.15;61.03
19286;BME280;9776;50.798;6.430;2022-09-09T01:14:44;99477.81;;;18.14;60.84
19286;BME280;9776;50.798;6.430;2022-09-09T01:17:16;99471.84;;;18.12;61.22
19286;BME280;9776;50.798;6.430;2022-09-09T01:19:53;99481.94;;;18.10;61.16
19286;BME280;9776;50.798;6.430;2022-09-09T01:22:30;99479.28;;;18.10;61.35
19286;BME280;9776;50.798;6.430;2022-09-09T01:25:27;99487.28;;;18.10;61.30
19286;BME280;9776;50.798;6.430;2022-09-09T01:27:58;99481.38;;;18.08;61.33
19286;BME280;9776;50.798;6.430;2022-09-09T01:30:26;99487.13;;;18.05;61.27
19286;BME280;9776;50.798;6.430;2022-09-09T01:32:54;99482.81;;;18.04;61.66
19286;BME280;9776;50.798;6.430;2022-09-09T01:35:33;99474.59;;;18.06;61.33
19286;BME280;9776;50.798;6.430;2022-09-09T01:38:03;99480.97;;;18.05;61.61
19286;BME280;9776;50.798;6.430;2022-09-09T01:40:31;99479.94;;;18.06;61.53
19286;BME280;9776;50.798;6.430;2022-09-09T01:43:00;99486.31;;;18.05;61.64
19286;BME280;9776;50.798;6.430;2022-09-09T01:45:27;99478.53;;;18.03;61.92
19286;BME280;9776;50.798;6.430;2022-09-09T01:47:53;99481.78;;;18.05;61.87
19286;BME280;9776;50.798;6.430;2022-09-09T01:50:20;99471.13;;;18.05;61.76
19286;BME280;9776;50.798;6.430;2022-09-09T01:52:50;99479.34;;;18.04;62.25
19286;BME280;9776;50.798;6.430;2022-09-09T01:55:25;99480.78;;;18.06;62.42
19286;BME280;9776;50.798;6.430;2022-09-09T01:58:04;99480.78;;;18.06;62.30
19286;BME280;9776;50.798;6.430;2022-09-09T02:00:39;99483.44;;;18.06;62.54
19286;BME280;9776;50.798;6.430;2022-09-09T02:03:17;99479.72;;;18.07;62.63
19286;BME280;9776;50.798;6.430;2022-09-09T02:05:52;99477.03;;;18.07;62.71
19286;BME280;9776;50.798;6.430;2022-09-09T02:08:29;99479.28;;;18.10;62.58
19286;BME280;9776;50.798;6.430;2022-09-09T02:11:03;99464.09;;;18.11;62.69
19286;BME280;9776;50.798;6.430;2022-09-09T02:13:35;99462.81;;;18.13;62.69
19286;BME280;9776;50.798;6.430;2022-09-09T02:16:07;99471.44;;;18.15;62.77
19286;BME280;9776;50.798;6.430;2022-09-09T02:18:39;99476.84;;;18.09;63.01
19286;BME280;9776;50.798;6.430;2022-09-09T02:21:07;99474.53;;;18.12;62.79
19286;BME280;9776;50.798;6.430;2022-09-09T02:23:34;99474.09;;;18.15;62.77
19286;BME280;9776;50.798;6.430;2022-09-09T02:26:03;99478.41;;;18.17;63.07
19286;BME280;9776;50.798;6.430;2022-09-09T02:28:33;99474.63;;;18.24;62.81
19286;BME280;9776;50.798;6.430;2022-09-09T02:31:01;99474.03;;;18.22;63.06
19286;BME280;9776;50.798;6.430;2022-09-09T02:33:32;99463.59;;;18.21;63.24
19286;BME280;9776;50.798;6.430;2022-09-09T02:36:01;99471.16;;;18.24;63.18
19286;BME280;9776;50.798;6.430;2022-09-09T02:38:32;99467.00;;;18.28;63.33
19286;BME280;9776;50.798;6.430;2022-09-09T02:41:01;99458.16;;;18.27;63.15
19286;BME280;9776;50.798;6.430;2022-09-09T02:43:31;99461.50;;;18.23;63.54
19286;BME280;9776;50.798;6.430;2022-09-09T02:46:04;99466.69;;;18.18;63.71
19286;BME280;9776;50.798;6.430;2022-09-09T02:48:38;99463.59;;;18.21;63.51
19286;BME280;9776;50.798;6.430;2022-09-09T02:51:08;99461.06;;;18.26;63.51
19286;BME280;9776;50.798;6.430;2022-09-09T02:53:43;99462.50;;;18.28;63.59
19286;BME280;9776;50.798;6.430;2022-09-09T02:56:16;99462.88;;;18.32;63.55
19286;BME280;9776;50.798;6.430;2022-09-09T02:58:43;99462.34;;;18.23;63.58
19286;BME280;9776;50.798;6.430;2022-09-09T03:01:12;99465.59;;;18.25;63.43
19286;BME280;9776;50.798;6.430;2022-09-09T03:03:39;99465.97;;;18.29;63.42
19286;BME280;9776;50.798;6.430;2022-09-09T03:06:06;99468.06;;;18.27;63.67
19286;BME280;9776;50.798;6.430;2022-09-09T03:08:33;99463.59;;;18.21;63.75
19286;BME280;9776;50.798;6.430;2022-09-09T03:10:59;99465.00;;;18.23;63.60
19286;BME280;9776;50.798;6.430;2022-09-09T03:13:27;99466.03;;;18.22;64.01
19286;BME280;9776;50.798;6.430;2022-09-09T03:15:54;99464.63;;;18.20;63.98
19286;BME280;9776;50.798;6.430;2022-09-09T03:18:22;99466.69;;;18.18;63.98
19286;BME280;9776;50.798;6.430;2022-09-09T03:20:49;99469.13;;;18.19;63.93
19286;BME280;9776;50.798;6.430;2022-09-09T03:23:16;99466.28;;;18.21;63.82
19286;BME280;9776;50.798;6.430;2022-09-09T03:25:46;99463.16;;;18.24;63.95
19286;BME280;9776;50.798;6.430;2022-09-09T03:28:13;99461.94;;;18.20;64.00
19286;BME280;9776;50.798;6.430;2022-09-09T03:30:40;99465.81;;;18.24;64.03
19286;BME280;9776;50.798;6.430;2022-09-09T03:33:07;99467.69;;;18.23;63.92
19286;BME280;9776;50.798;6.430;2022-09-09T03:35:35;99466.63;;;18.24;63.77
19286;BME280;9776;50.798;6.430;2022-09-09T03:38:01;99460.50;;;18.24;64.16
19286;BME280;9776;50.798;6.430;2022-09-09T03:40:28;99466.41;;;18.26;63.87
19286;BME280;9776;50.798;6.430;2022-09-09T03:42:56;99479.34;;;18.29;64.14
19286;BME280;9776;50.798;6.430;2022-09-09T03:45:22;99466.41;;;18.26;63.84
19286;BME280;9776;50.798;6.430;2022-09-09T03:47:49;99469.28;;;18.24;64.02
19286;BME280;9776;50.798;6.430;2022-09-09T03:50:16;99466.91;;;18.16;64.38
19286;BME280;9776;50.798;6.430;2022-09-09T03:52:45;99469.00;;;18.14;64.44
19286;BME280;9776;50.798;6.430;2022-09-09T03:55:12;99474.53;;;18.12;64.54
19286;BME280;9776;50.798;6.430;2022-09-09T03:57:39;99470.84;;;18.13;64.61
19286;BME280;9776;50.798;6.430;2022-09-09T04:00:07;99470.00;;;18.13;64.68
19286;BME280;9776;50.798;6.430;2022-09-09T04:02:34;99474.09;;;18.15;64.22
19286;BME280;9776;50.798;6.430;2022-09-09T04:05:00;99466.91;;;18.16;64.27
19286;BME280;9776;50.798;6.430;2022-09-09T04:07:27;99458.47;;;18.19;64.39
19286;BME280;9776;50.798;6.430;2022-09-09T04:09:55;99467.25;;;18.26;64.02
19286;BME280;9776;50.798;6.430;2022-09-09T04:12:22;99465.16;;;18.28;64.38
19286;BME280;9776;50.798;6.430;2022-09-09T04:14:48;99470.06;;;18.31;64.02
19286;BME280;9776;50.798;6.430;2022-09-09T04:17:15;99457.53;;;18.32;64.15
19286;BME280;9776;50.798;6.430;2022-09-09T04:19:42;99464.91;;;18.30;64.38
19286;BME280;9776;50.798;6.430;2022-09-09T04:22:09;99457.97;;;18.29;64.50
19286;BME280;9776;50.798;6.430;2022-09-09T04:24:35;99455.69;;;18.32;64.20
19286;BME280;9776;50.798;6.430;2022-09-09T04:27:03;99453.22;;;18.31;64.38
19286;BME280;9776;50.798;6.430;2022-09-09T04:29:30;99448.09;;;18.29;64.43
19286;BME280;9776;50.798;6.430;2022-09-09T04:31:57;99454.03;;;18.31;64.06
19286;BME280;9776;50.798;6.430;2022-09-09T04:34:23;99455.69;;;18.32;64.24
19286;BME280;9776;50.798;6.430;2022-09-09T04:36:50;99461.03;;;18.32;64.04
19286;BME280;9776;50.798;6.430;2022-09-09T04:39:17;99457.28;;;18.33;64.38
19286;BME280;9776;50.798;6.430;2022-09-09T04:41:44;99457.69;;;18.37;64.14
19286;BME280;9776;50.798;6.430;2022-09-09T04:44:13;99457.69;;;18.37;64.24
19286;BME280;9776;50.798;6.430;2022-09-09T04:46:40;99464.34;;;18.28;64.34
19286;BME280;9776;50.798;6.430;2022-09-09T04:49:07;99466.03;;;18.22;64.34
19286;BME280;9776;50.798;6.430;2022-09-09T04:51:36;99454.72;;;18.27;64.23
19286;BME280;9776;50.798;6.430;2022-09-09T04:54:02;99476.66;;;18.29;64.18
19286;BME280;9776;50.798;6.430;2022-09-09T04:56:31;99474.19;;;18.27;64.19
19286;BME280;9776;50.798;6.430;2022-09-09T04:58:57;99471.66;;;18.14;64.65
19286;BME280;9776;50.798;6.430;2022-09-09T05:01:26;99463.69;;;18.07;64.73
19286;BME280;9776;50.798;6.430;2022-09-09T05:03:52;99474.75;;;18.11;64.50
19286;BME280;9776;50.798;6.430;2022-09-09T05:06:20;99474.38;;;18.07;64.36
19286;BME280;9776;50.798;6.430;2022-09-09T05:08:47;99470.97;;;18.00;64.53
19286;BME280;9776;50.798;6.430;2022-09-09T05:11:19;99474.06;;;17.97;64.77
19286;BME280;9776;50.798;6.430;2022-09-09T05:13:47;99479.66;;;17.89;64.89
19286;BME280;9776;50.798;6.430;2022-09-09T05:16:16;99477.06;;;17.83;64.99
19286;BME280;9776;50.798;6.430;2022-09-09T05:18:44;99483.88;;;17.72;65.43
19286;BME280;9776;50.798;6.430;2022-09-09T05:21:12;99474.28;;;17.65;65.51
19286;BME280;9776;50.798;6.430;2022-09-09T05:23:40;99474.53;;;17.63;65.62
19286;BME280;9776;50.798;6.430;2022-09-09T05:26:09;99478.81;;;17.64;65.48
19286;BME280;9776;50.798;6.430;2022-09-09T05:28:38;99477.94;;;17.70;65.55
19286;BME280;9776;50.798;6.430;2022-09-09T05:31:06;99473.81;;;17.74;65.45
19286;BME280;9776;50.798;6.430;2022-09-09T05:33:34;99468.09;;;17.71;65.45
19286;BME280;9776;50.798;6.430;2022-09-09T05:36:04;99474.03;;;17.73;65.15
19286;BME280;9776;50.798;6.430;2022-09-09T05:38:32;99473.22;;;17.72;65.37
19286;BME280;9776;50.798;6.430;2022-09-09T05:40:59;99462.75;;;17.71;65.21
19286;BME280;9776;50.798;6.430;2022-09-09T05:43:26;99470.19;;;17.69;65.07
19286;BME280;9776;50.798;6.430;2022-09-09T05:46:02;99471.44;;;17.66;65.27
19286;BME280;9776;50.798;6.430;2022-09-09T05:48:30;99468.56;;;17.61;65.50
19286;BME280;9776;50.798;6.430;2022-09-09T05:50:57;99473.22;;;17.72;64.92
19286;BME280;9776;50.798;6.430;2022-09-09T05:53:25;99485.25;;;17.81;64.89
19286;BME280;9776;50.798;6.430;2022-09-09T05:55:59;99485.63;;;17.91;64.49
19286;BME280;9776;50.798;6.430;2022-09-09T05:58:27;99493.34;;;17.99;64.32
19286;BME280;9776;50.798;6.430;2022-09-09T06:01:00;99487.56;;;18.02;64.04
19286;BME280;9776;50.798;6.430;2022-09-09T06:03:27;99489.09;;;18.17;63.79
19286;BME280;9776;50.798;6.430;2022-09-09T06:05:57;99483.81;;;18.35;63.35
19286;BME280;9776;50.798;6.430;2022-09-09T06:08:25;99478.16;;;18.49;62.99
19286;BME280;9776;50.798;6.430;2022-09-09T06:10:52;99471.38;;;18.65;62.39
19286;BME280;9776;50.798;6.430;2022-09-09T06:13:18;99479.88;;;18.80;61.77
19286;BME280;9776;50.798;6.430;2022-09-09T06:15:49;99464.84;;;18.79;61.73
19286;BME280;9776;50.798;6.430;2022-09-09T06:18:16;99467.81;;;18.71;62.08
19286;BME280;9776;50.798;6.430;2022-09-09T06:20:43;99465.47;;;18.81;61.69
19286;BME280;9776;50.798;6.430;2022-09-09T06:23:19;99462.75;;;18.99;60.85
19286;BME280;9776;50.798;6.430;2022-09-09T06:25:47;99464.84;;;18.97;60.81
19286;BME280;9776;50.798;6.430;2022-09-09T06:28:14;99459.00;;;18.89;60.66
19286;BME280;9776;50.798;6.430;2022-09-09T06:30:41;99463.06;;;18.91;60.69
19286;BME280;9776;50.798;6.430;2022-09-09T06:33:08;99453.44;;;18.90;60.24
19286;BME280;9776;50.798;6.430;2022-09-09T06:35:35;99460.41;;;18.91;60.19
19286;BME280;9776;50.798;6.430;2022-09-09T06:38:02;99462.63;;;18.94;59.47
19286;BME280;9776;50.798;6.430;2022-09-09T06:40:29;99459.84;;;19.19;59.10
19286;BME280;9776;50.798;6.430;2022-09-09T06:43:00;99457.25;;;19.72;57.28
19286;BME280;9776;50.798;6.430;2022-09-09T06:45:27;99463.53;;;20.30;55.84
19286;BME280;9776;50.798;6.430;2022-09-09T06:47:55;99455.91;;;20.74;54.67
19286;BME280;9776;50.798;6.430;2022-09-09T06:50:21;99455.25;;;21.07;53.81
19286;BME280;9776;50.798;6.430;2022-09-09T06:52:48;99464.47;;;21.39;52.65
19286;BME280;9776;50.798;6.430;2022-09-09T06:55:15;99466.22;;;21.62;51.83
19286;BME280;9776;50.798;6.430;2022-09-09T06:57:43;99463.41;;;21.85;51.14
19286;BME280;9776;50.798;6.430;2022-09-09T07:00:12;99458.63;;;22.37;49.81
19286;BME280;9776;50.798;6.430;2022-09-09T07:02:39;99455.47;;;22.78;48.98
19286;BME280;9776;50.798;6.430;2022-09-09T07:05:07;99455.88;;;22.92;48.39
19286;BME280;9776;50.798;6.430;2022-09-09T07:07:34;99460.75;;;23.38;47.42
19286;BME280;9776;50.798;6.430;2022-09-09T07:10:02;99461.84;;;23.96;46.20
19286;BME280;9776;50.798;6.430;2022-09-09T07:12:29;99460.59;;;24.40;45.10
19286;BME280;9776;50.798;6.430;2022-09-09T07:14:55;99459.69;;;24.71;44.33
19286;BME280;9776;50.798;6.430;2022-09-09T07:17:23;99455.34;;;25.27;42.82
19286;BME280;9776;50.798;6.430;2022-09-09T07:19:50;99466.44;;;25.41;42.63
19286;BME280;9776;50.798;6.430;2022-09-09T07:22:17;99456.94;;;25.28;42.65
19286;BME280;9776;50.798;6.430;2022-09-09T07:24:45;99461.44;;;24.93;43.25
19286;BME280;9776;50.798;6.430;2022-09-09T07:27:12;99463.09;;;24.99;42.74
19286;BME280;9776;50.798;6.430;2022-09-09T07:29:39;99468.50;;;24.57;43.32
19286;BME280;9776;50.798;6.430;2022-09-09T07:32:06;99469.06;;;23.90;44.60
19286;BME280;9776;50.798;6.430;2022-09-09T07:34:34;99473.53;;;24.06;43.85
19286;BME280;9776;50.798;6.430;2022-09-09T07:37:00;99468.59;;;24.30;43.06
19286;BME280;9776;50.798;6.430;2022-09-09T07:39:27;99475.84;;;24.66;42.21
19286;BME280;9776;50.798;6.430;2022-09-09T07:41:54;99464.69;;;24.95;41.33
19286;BME280;9776;50.798;6.430;2022-09-09T07:44:23;99477.31;;;24.42;41.99
19286;BME280;9776;50.798;6.430;2022-09-09T07:46:52;99471.22;;;23.88;43.12
19286;BME280;9776;50.798;6.430;2022-09-09T07:49:18;99483.44;;;22.99;44.48
19286;BME280;9776;50.798;6.430;2022-09-09T07:51:47;99481.44;;;22.34;45.54
19286;BME280;9776;50.798;6.430;2022-09-09T07:54:16;99473.28;;;22.46;44.95
19286;BME280;9776;50.798;6.430;2022-09-09T07:56:46;99467.91;;;22.84;43.98
19286;BME280;9776;50.798;6.430;2022-09-09T07:59:15;99471.34;;;22.41;44.71
19286;BME280;9776;50.798;6.430;2022-09-09T08:01:44;99466.31;;;22.12;45.28
19286;BME280;9776;50.798;6.430;2022-09-09T08:04:13;99474.50;;;22.38;44.85
19286;BME280;9776;50.798;6.430;2022-09-09T08:06:44;99476.03;;;22.68;44.00
19286;BME280;9776;50.798;6.430;2022-09-09T08:09:16;99485.16;;;22.67;43.82
19286;BME280;9776;50.798;6.430;2022-09-09T08:11:44;99482.22;;;22.51;43.81
19286;BME280;9776;50.798;6.430;2022-09-09T08:14:11;99493.50;;;22.32;44.01
19286;BME280;9776;50.798;6.430;2022-09-09T08:16:40;99477.53;;;22.80;43.14
19286;BME280;9776;50.798;6.430;2022-09-09T08:19:12;99482.56;;;22.93;42.71
19286;BME280;9776;50.798;6.430;2022-09-09T08:21:41;99490.19;;;22.63;43.28
19286;BME280;9776;50.798;6.430;2022-09-09T08:24:10;99484.81;;;22.25;43.78
19286;BME280;9776;50.798;6.430;2022-09-09T08:26:43;99492.59;;;22.26;43.88
19286;BME280;9776;50.798;6.430;2022-09-09T08:29:12;99487.81;;;23.27;41.82
19286;BME280;9776;50.798;6.430;2022-09-09T08:31:41;99485.91;;;24.39;40.03
19286;BME280;9776;50.798;6.430;2022-09-09T08:34:08;99487.06;;;25.67;37.62
19286;BME280;9776;50.798;6.430;2022-09-09T08:36:37;99486.66;;;27.05;35.91
19286;BME280;9776;50.798;6.430;2022-09-09T08:39:05;99485.41;;;27.90;34.16
19286;BME280;9776;50.798;6.430;2022-09-09T08:41:55;99489.19;;;28.28;33.54
19286;BME280;9776;50.798;6.430;2022-09-09T08:44:37;99494.81;;;28.37;33.57
19286;BME280;9776;50.798;6.430;2022-09-09T08:47:16;99476.91;;;27.63;34.85
19286;BME280;9776;50.798;6.430;2022-09-09T08:50:00;99492.50;;;26.38;36.52
19286;BME280;9776;50.798;6.430;2022-09-09T08:52:44;99496.78;;;25.53;38.20
19286;BME280;9776;50.798;6.430;2022-09-09T08:55:22;99494.66;;;24.93;39.11
19286;BME280;9776;50.798;6.430;2022-09-09T08:57:54;99500.59;;;24.53;39.85
19286;BME280;9776;50.798;6.430;2022-09-09T09:00:22;99496.81;;;23.86;41.01
19286;BME280;9776;50.798;6.430;2022-09-09T09:03:04;99507.81;;;24.43;40.20
19286;BME280;9776;50.798;6.430;2022-09-09T09:05:40;99499.22;;;24.93;39.50
19286;BME280;9776;50.798;6.430;2022-09-09T09:08:17;99498.72;;;25.83;37.81
19286;BME280;9776;50.798;6.430;2022-09-09T09:10:48;99508.09;;;26.96;36.17
19286;BME280;9776;50.798;6.430;2022-09-09T09:13:19;99495.78;;;27.29;35.82
19286;BME280;9776;50.798;6.430;2022-09-09T09:15:50;99502.94;;;28.37;34.01
19286;BME280;9776;50.798;6.430;2022-09-09T09:18:18;99499.97;;;27.07;35.58
19286;BME280;9776;50.798;6.430;2022-09-09T09:20:54;99500.22;;;27.05;35.98
19286;BME280;9776;50.798;6.430;2022-09-09T09:23:23;99495.75;;;28.22;34.29
19286;BME280;9776;50.798;6.430;2022-09-09T09:25:55;99492.47;;;29.01;33.11
19286;BME280;9776;50.798;6.430;2022-09-09T09:28:28;99493.84;;;28.80;33.12
19286;BME280;9776;50.798;6.430;2022-09-09T09:30:58;99502.56;;;28.48;33.22
19286;BME280;9776;50.798;6.430;2022-09-09T09:33:31;99507.50;;;29.60;31.85
19286;BME280;9776;50.798;6.430;2022-09-09T09:36:00;99510.38;;;31.25;29.71
19286;BME280;9776;50.798;6.430;2022-09-09T09:38:28;99518.13;;;31.45;29.38
19286;BME280;9776;50.798;6.430;2022-09-09T09:40:57;99516.06;;;29.30;32.29
19286;BME280;9776;50.798;6.430;2022-09-09T09:43:27;99512.84;;;29.27;32.08
19286;BME280;9776;50.798;6.430;2022-09-09T09:45:54;99502.31;;;30.33;30.49
19286;BME280;9776;50.798;6.430;2022-09-09T09:48:23;99510.09;;;32.12;28.26
19286;BME280;9776;50.798;6.430;2022-09-09T09:50:52;99518.81;;;30.55;30.13
19286;BME280;9776;50.798;6.430;2022-09-09T09:53:21;99523.91;;;29.55;31.50
19286;BME280;9776;50.798;6.430;2022-09-09T09:55:55;99515.06;;;28.44;33.13
19286;BME280;9776;50.798;6.430;2022-09-09T09:58:23;99508.69;;;27.91;33.96
19286;BME280;9776;50.798;6.430;2022-09-09T10:00:53;99507.84;;;28.63;32.77
19286;BME280;9776;50.798;6.430;2022-09-09T10:03:25;99508.16;;;28.86;32.48
19286;BME280;9776;50.798;6.430;2022-09-09T10:05:53;99511.53;;;29.25;31.92
19286;BME280;9776;50.798;6.430;2022-09-09T10:08:22;99520.06;;;28.32;32.97
19286;BME280;9776;50.798;6.430;2022-09-09T10:10:59;99512.22;;;27.48;34.40
19286;BME280;9776;50.798;6.430;2022-09-09T10:13:32;99506.81;;;27.48;34.76
19286;BME280;9776;50.798;6.430;2022-09-09T10:16:20;99497.22;;;27.66;34.50
19286;BME280;9776;50.798;6.430;2022-09-09T10:18:59;99488.25;;;27.21;34.88
19286;BME280;9776;50.798;6.430;2022-09-09T10:21:45;99490.94;;;27.16;34.58
19286;BME280;9776;50.798;6.430;2022-09-09T10:24:36;99494.41;;;28.20;32.81
19286;BME280;9776;50.798;6.430;2022-09-09T10:27:15;99490.16;;;29.93;29.92
19286;BME280;9776;50.798;6.430;2022-09-09T10:30:03;99485.31;;;28.87;31.29
19286;BME280;9776;50.798;6.430;2022-09-09T10:32:44;99488.78;;;27.72;32.51
19286;BME280;9776;50.798;6.430;2022-09-09T10:35:19;99501.97;;;26.35;34.66
19286;BME280;9776;50.798;6.430;2022-09-09T10:38:12;99499.16;;;25.45;36.10
19286;BME280;9776;50.798;6.430;2022-09-09T10:40:46;99494.00;;;25.33;36.65
19286;BME280;9776;50.798;6.430;2022-09-09T10:43:26;99501.72;;;26.22;35.01
19286;BME280;9776;50.798;6.430;2022-09-09T10:46:03;99497.91;;;25.98;35.49
19286;BME280;9776;50.798;6.430;2022-09-09T10:48:46;99495.88;;;25.37;36.27
19286;BME280;9776;50.798;6.430;2022-09-09T10:51:23;99497.66;;;25.07;36.93
19286;BME280;9776;50.798;6.430;2022-09-09T10:53:58;99493.53;;;25.51;36.34
19286;BME280;9776;50.798;6.430;2022-09-09T10:56:31;99485.97;;;25.63;36.17
19286;BME280;9776;50.798;6.430;2022-09-09T10:59:00;99490.75;;;25.41;36.39
19286;BME280;9776;50.798;6.430;2022-09-09T11:01:33;99488.81;;;25.21;36.85
19286;BME280;9776;50.798;6.430;2022-09-09T11:04:05;99499.09;;;25.24;36.93
19286;BME280;9776;50.798;6.430;2022-09-09T11:06:40;99480.97;;;25.20;36.93
19286;BME280;9776;50.798;6.430;2022-09-09T11:09:14;99485.72;;;24.93;37.22
19286;BME280;9776;50.798;6.430;2022-09-09T11:11:46;99483.47;;;24.79;37.71
19286;BME280;9776;50.798;6.430;2022-09-09T11:14:21;99494.06;;;24.86;37.73
19286;BME280;9776;50.798;6.430;2022-09-09T11:16:51;99484.16;;;25.02;37.61
19286;BME280;9776;50.798;6.430;2022-09-09T11:19:24;99469.91;;;25.16;37.36
19286;BME280;9776;50.798;6.430;2022-09-09T11:21:53;99490.75;;;25.31;36.95
19286;BME280;9776;50.798;6.430;2022-09-09T11:24:27;99479.38;;;25.19;37.23
19286;BME280;9776;50.798;6.430;2022-09-09T11:26:58;99484.31;;;24.85;38.00
19286;BME280;9776;50.798;6.430;2022-09-09T11:30:02;99483.81;;;24.41;38.94
19286;BME280;9776;50.798;6.430;2022-09-09T11:32:56;99493.63;;;24.62;38.68
19286;BME280;9776;50.798;6.430;2022-09-09T11:35:41;99496.81;;;26.54;35.71
19286;BME280;9776;50.798;6.430;2022-09-09T11:38:19;99487.81;;;28.54;32.77
19286;BME280;9776;50.798;6.430;2022-09-09T11:40:54;99485.03;;;29.12;31.98
19286;BME280;9776;50.798;6.430;2022-09-09T11:43:24;99480.81;;;27.86;33.18
19286;BME280;9776;50.798;6.430;2022-09-09T11:45:58;99494.59;;;26.91;34.68
19286;BME280;9776;50.798;6.430;2022-09-09T11:48:30;99487.13;;;26.28;35.95
19286;BME280;9776;50.798;6.430;2022-09-09T11:51:05;99493.53;;;25.66;36.89
19286;BME280;9776;50.798;6.430;2022-09-09T11:53:33;99493.97;;;25.28;37.34
19286;BME280;9776;50.798;6.430;2022-09-09T11:56:03;99502.00;;;25.08;38.01
19286;BME280;9776;50.798;6.430;2022-09-09T11:58:36;99507.41;;;24.66;38.73
19286;BME280;9776;50.798;6.430;2022-09-09T12:01:24;99531.69;;;24.24;39.71
19286;BME280;9776;50.798;6.430;2022-09-09T12:04:02;99535.44;;;24.23;40.97
19286;BME280;9776;50.798;6.430;2022-09-09T12:06:41;99514.16;;;26.03;39.31
19286;BME280;9776;50.798;6.430;2022-09-09T12:09:18;99511.31;;;28.69;35.64
19286;BME280;9776;50.798;6.430;2022-09-09T12:11:45;99516.25;;;30.45;33.47
19286;BME280;9776;50.798;6.430;2022-09-09T12:14:19;99523.44;;;30.55;33.43
19286;BME280;9776;50.798;6.430;2022-09-09T12:16:47;99518.94;;;31.45;32.35
19286;BME280;9776;50.798;6.430;2022-09-09T12:19:15;99513.09;;;31.11;32.25
19286;BME280;9776;50.798;6.430;2022-09-09T12:21:50;99520.13;;;31.67;31.15
19286;BME280;9776;50.798;6.430;2022-09-09T12:24:24;99510.16;;;32.82;29.47
19286;BME280;9776;50.798;6.430;2022-09-09T12:26:58;99502.03;;;33.90;27.69
19286;BME280;9776;50.798;6.430;2022-09-09T12:29:36;99504.94;;;34.19;27.14
19286;BME280;9776;50.798;6.430;2022-09-09T12:32:10;99502.75;;;34.50;26.56
19286;BME280;9776;50.798;6.430;2022-09-09T12:34:39;99504.53;;;33.18;27.62
19286;BME280;9776;50.798;6.430;2022-09-09T12:37:15;99498.69;;;33.10;28.05
19286;BME280;9776;50.798;6.430;2022-09-09T12:39:47;99498.06;;;31.77;29.39
19286;BME280;9776;50.798;6.430;2022-09-09T12:42:17;99489.25;;;31.80;28.99
19286;BME280;9776;50.798;6.430;2022-09-09T12:44:54;99489.00;;;32.56;28.18
19286;BME280;9776;50.798;6.430;2022-09-09T12:47:25;99481.91;;;33.86;26.61
19286;BME280;9776;50.798;6.430;2022-09-09T12:49:54;99483.25;;;32.67;28.10
19286;BME280;9776;50.798;6.430;2022-09-09T12:52:27;99481.94;;;32.33;28.32
19286;BME280;9776;50.798;6.430;2022-09-09T12:54:57;99476.19;;;31.55;29.26
19286;BME280;9776;50.798;6.430;2022-09-09T12:57:26;99471.84;;;32.73;27.68
19286;BME280;9776;50.798;6.430;2022-09-09T13:00:05;99464.41;;;32.03;28.64
19286;BME280;9776;50.798;6.430;2022-09-09T13:02:32;99465.97;;;30.97;30.11
19286;BME280;9776;50.798;6.430;2022-09-09T13:05:08;99454.19;;;29.96;31.41
19286;BME280;9776;50.798;6.430;2022-09-09T13:07:41;99464.66;;;29.33;32.67
19286;BME280;9776;50.798;6.430;2022-09-09T13:10:11;99458.81;;;28.79;33.13
19286;BME280;9776;50.798;6.430;2022-09-09T13:12:38;99468.03;;;28.54;33.42
19286;BME280;9776;50.798;6.430;2022-09-09T13:15:14;99451.34;;;27.74;34.50
19286;BME280;9776;50.798;6.430;2022-09-09T13:17:51;99459.66;;;27.39;35.29
19286;BME280;9776;50.798;6.430;2022-09-09T13:20:19;99444.16;;;27.05;35.31
19286;BME280;9776;50.798;6.430;2022-09-09T13:22:49;99453.53;;;26.54;36.01
19286;BME280;9776;50.798;6.430;2022-09-09T13:25:20;99454.91;;;26.01;36.93
19286;BME280;9776;50.798;6.430;2022-09-09T13:27:57;99447.31;;;25.63;37.44
19286;BME280;9776;50.798;6.430;2022-09-09T13:30:26;99448.66;;;25.60;37.89
19286;BME280;9776;50.798;6.430;2022-09-09T13:33:19;99454.88;;;25.51;38.79